sensor_id;sensor_type;location;lat;lon;timestamp;P1;durP1;ratioP1;P2;durP2;ratioP2
355;SDS011;62514;48.112;11.566;2024-02-26T00:00:40;287.60;;;56.70;;
355;SDS011;62514;48.112;11.566;2024-02-26T00:03:06;304.00;;;58.00;;
355;SDS011;62514;48.112;11.566;2024-02-26T00:05:32;308.93;;;59.53;;
355;SDS011;62514;48.112;11.566;2024-02-26T00:07:58;314.83;;;60.50;;
355;SDS011;62514;48.112;11.566;2024-02-26T00:10:24;295.53;;;57.77;;
355;SDS011;62514;48.112;11.566;2024-02-26T00:12:50;317.57;;;60.80;;
355;SDS011;62514;48.112;11.566;2024-02-26T00:15:16;322.03;;;61.53;;
355;SDS011;62514;48.112;11.566;2024-02-26T00:17:42;319.73;;;61.90;;
355;SDS011;62514;48.112;11.566;2024-02-26T00:20:09;303.77;;;58.33;;
355;SDS011;62514;48.112;11.566;2024-02-26T00:22:36;252.50;;;52.50;;
355;SDS011;62514;48.112;11.566;2024-02-26T00:25:02;254.97;;;54.30;;
355;SDS011;62514;48.112;11.566;2024-02-26T00:27:29;251.37;;;53.00;;
355;SDS011;62514;48.112;11.566;2024-02-26T00:29:55;254.67;;;53.07;;
355;SDS011;62514;48.112;11.566;2024-02-26T00:32:21;271.10;;;54.20;;
355;SDS011;62514;48.112;11.566;2024-02-26T00:34:47;286.90;;;56.17;;
355;SDS011;62514;48.112;11.566;2024-02-26T00:37:13;284.03;;;55.53;;
355;SDS011;62514;48.112;11.566;2024-02-26T00:39:39;290.87;;;57.80;;
355;SDS011;62514;48.112;11.566;2024-02-26T00:42:05;310.73;;;59.87;;
355;SDS011;62514;48.112;11.566;2024-02-26T00:44:31;310.53;;;59.50;;
355;SDS011;62514;48.112;11.566;2024-02-26T00:46:57;304.93;;;58.73;;
355;SDS011;62514;48.112;11.566;2024-02-26T00:49:23;300.83;;;58.37;;
355;SDS011;62514;48.112;11.566;2024-02-26T00:51:49;306.60;;;60.03;;
355;SDS011;62514;48.112;11.566;2024-02-26T00:54:15;296.07;;;57.73;;
355;SDS011;62514;48.112;11.566;2024-02-26T00:56:40;298.57;;;57.77;;
355;SDS011;62514;48.112;11.566;2024-02-26T00:59:06;307.07;;;60.23;;
355;SDS011;62514;48.112;11.566;2024-02-26T01:01:32;298.60;;;59.60;;
355;SDS011;62514;48.112;11.566;2024-02-26T01:03:58;295.87;;;57.77;;
355;SDS011;62514;48.112;11.566;2024-02-26T01:06:24;296.17;;;57.37;;
355;SDS011;62514;48.112;11.566;2024-02-26T01:08:50;295.90;;;59.00;;
355;SDS011;62514;48.112;11.566;2024-02-26T01:11:16;301.10;;;58.27;;
355;SDS011;62514;48.112;11.566;2024-02-26T01:13:42;219.10;;;49.50;;
355;SDS011;62514;48.112;11.566;2024-02-26T01:16:08;221.87;;;50.20;;
355;SDS011;62514;48.112;11.566;2024-02-26T01:18:35;259.03;;;53.70;;
355;SDS011;62514;48.112;11.566;2024-02-26T01:21:01;293.73;;;58.20;;
355;SDS011;62514;48.112;11.566;2024-02-26T01:23:29;303.20;;;58.57;;
355;SDS011;62514;48.112;11.566;2024-02-26T01:25:56;299.23;;;58.40;;
355;SDS011;62514;48.112;11.566;2024-02-26T01:28:21;291.33;;;57.37;;
355;SDS011;62514;48.112;11.566;2024-02-26T01:30:47;291.23;;;57.90;;
355;SDS011;62514;48.112;11.566;2024-02-26T01:33:13;277.00;;;59.97;;
355;SDS011;62514;48.112;11.566;2024-02-26T01:35:39;293.40;;;58.50;;
355;SDS011;62514;48.112;11.566;2024-02-26T01:38:05;297.03;;;59.00;;
355;SDS011;62514;48.112;11.566;2024-02-26T01:40:31;284.77;;;55.87;;
355;SDS011;62514;48.112;11.566;2024-02-26T01:42:58;288.57;;;56.47;;
355;SDS011;62514;48.112;11.566;2024-02-26T01:45:24;287.47;;;56.60;;
355;SDS011;62514;48.112;11.566;2024-02-26T01:47:51;290.73;;;58.77;;
355;SDS011;62514;48.112;11.566;2024-02-26T01:50:17;268.43;;;54.97;;
355;SDS011;62514;48.112;11.566;2024-02-26T01:52:47;299.53;;;60.27;;
355;SDS011;62514;48.112;11.566;2024-02-26T01:55:16;272.50;;;55.07;;
355;SDS011;62514;48.112;11.566;2024-02-26T01:57:43;298.50;;;59.30;;
355;SDS011;62514;48.112;11.566;2024-02-26T02:00:12;299.77;;;58.53;;
355;SDS011;62514;48.112;11.566;2024-02-26T02:02:39;297.73;;;58.00;;
355;SDS011;62514;48.112;11.566;2024-02-26T02:05:07;295.63;;;58.00;;
355;SDS011;62514;48.112;11.566;2024-02-26T02:07:35;291.27;;;58.00;;
355;SDS011;62514;48.112;11.566;2024-02-26T02:10:01;286.80;;;56.53;;
355;SDS011;62514;48.112;11.566;2024-02-26T02:12:28;282.47;;;56.90;;
355;SDS011;62514;48.112;11.566;2024-02-26T02:14:54;292.57;;;57.70;;
355;SDS011;62514;48.112;11.566;2024-02-26T02:17:20;279.43;;;56.20;;
355;SDS011;62514;48.112;11.566;2024-02-26T02:19:46;218.57;;;48.87;;
355;SDS011;62514;48.112;11.566;2024-02-26T02:22:12;240.53;;;51.27;;
355;SDS011;62514;48.112;11.566;2024-02-26T02:24:38;256.43;;;53.03;;
355;SDS011;62514;48.112;11.566;2024-02-26T02:27:04;259.90;;;54.13;;
355;SDS011;62514;48.112;11.566;2024-02-26T02:29:30;256.97;;;53.00;;
355;SDS011;62514;48.112;11.566;2024-02-26T02:31:56;255.87;;;53.10;;
355;SDS011;62514;48.112;11.566;2024-02-26T02:34:23;260.43;;;53.90;;
355;SDS011;62514;48.112;11.566;2024-02-26T02:36:52;258.23;;;53.10;;
355;SDS011;62514;48.112;11.566;2024-02-26T02:39:19;256.47;;;52.70;;
355;SDS011;62514;48.112;11.566;2024-02-26T02:41:46;270.73;;;54.50;;
355;SDS011;62514;48.112;11.566;2024-02-26T02:44:12;290.23;;;58.33;;
355;SDS011;62514;48.112;11.566;2024-02-26T02:46:38;293.50;;;58.90;;
355;SDS011;62514;48.112;11.566;2024-02-26T02:49:07;310.27;;;60.93;;
355;SDS011;62514;48.112;11.566;2024-02-26T02:51:35;304.67;;;59.97;;
355;SDS011;62514;48.112;11.566;2024-02-26T02:54:01;253.47;;;52.50;;
355;SDS011;62514;48.112;11.566;2024-02-26T02:56:27;249.20;;;52.00;;
355;SDS011;62514;48.112;11.566;2024-02-26T02:58:53;261.47;;;53.90;;
355;SDS011;62514;48.112;11.566;2024-02-26T03:01:19;278.27;;;57.27;;
355;SDS011;62514;48.112;11.566;2024-02-26T03:03:45;280.03;;;56.20;;
355;SDS011;62514;48.112;11.566;2024-02-26T03:06:11;203.20;;;46.90;;
355;SDS011;62514;48.112;11.566;2024-02-26T03:08:37;197.30;;;46.70;;
355;SDS011;62514;48.112;11.566;2024-02-26T03:11:05;198.20;;;47.90;;
355;SDS011;62514;48.112;11.566;2024-02-26T03:13:31;192.17;;;46.00;;
355;SDS011;62514;48.112;11.566;2024-02-26T03:15:57;192.37;;;45.93;;
355;SDS011;62514;48.112;11.566;2024-02-26T03:18:23;188.47;;;44.97;;
355;SDS011;62514;48.112;11.566;2024-02-26T03:20:49;197.60;;;47.70;;
355;SDS011;62514;48.112;11.566;2024-02-26T03:23:15;201.47;;;50.40;;
355;SDS011;62514;48.112;11.566;2024-02-26T03:25:43;197.97;;;47.10;;
355;SDS011;62514;48.112;11.566;2024-02-26T03:28:11;203.10;;;47.80;;
355;SDS011;62514;48.112;11.566;2024-02-26T03:30:38;201.20;;;46.47;;
355;SDS011;62514;48.112;11.566;2024-02-26T03:33:04;200.27;;;46.67;;
355;SDS011;62514;48.112;11.566;2024-02-26T03:35:30;206.87;;;48.00;;
355;SDS011;62514;48.112;11.566;2024-02-26T03:37:56;208.97;;;47.97;;
355;SDS011;62514;48.112;11.566;2024-02-26T03:40:22;209.60;;;47.90;;
355;SDS011;62514;48.112;11.566;2024-02-26T03:42:48;208.97;;;48.80;;
355;SDS011;62514;48.112;11.566;2024-02-26T03:45:14;214.30;;;49.57;;
355;SDS011;62514;48.112;11.566;2024-02-26T03:47:40;213.77;;;48.13;;
355;SDS011;62514;48.112;11.566;2024-02-26T03:50:06;223.37;;;50.00;;
355;SDS011;62514;48.112;11.566;2024-02-26T03:52:33;227.83;;;50.90;;
355;SDS011;62514;48.112;11.566;2024-02-26T03:54:59;247.50;;;53.67;;
355;SDS011;62514;48.112;11.566;2024-02-26T03:57:25;255.47;;;53.00;;
355;SDS011;62514;48.112;11.566;2024-02-26T03:59:51;257.67;;;53.97;;
355;SDS011;62514;48.112;11.566;2024-02-26T04:02:17;259.43;;;54.47;;
355;SDS011;62514;48.112;11.566;2024-02-26T04:04:46;262.30;;;54.80;;
355;SDS011;62514;48.112;11.566;2024-02-26T04:07:12;278.37;;;56.87;;
355;SDS011;62514;48.112;11.566;2024-02-26T04:09:38;279.97;;;56.07;;
355;SDS011;62514;48.112;11.566;2024-02-26T04:12:04;276.07;;;56.03;;
355;SDS011;62514;48.112;11.566;2024-02-26T04:14:31;288.27;;;58.47;;
355;SDS011;62514;48.112;11.566;2024-02-26T04:16:57;275.30;;;55.80;;
355;SDS011;62514;48.112;11.566;2024-02-26T04:19:22;243.37;;;52.70;;
355;SDS011;62514;48.112;11.566;2024-02-26T04:21:49;208.37;;;48.47;;
355;SDS011;62514;48.112;11.566;2024-02-26T04:24:15;208.10;;;48.40;;
355;SDS011;62514;48.112;11.566;2024-02-26T04:26:40;238.97;;;52.20;;
355;SDS011;62514;48.112;11.566;2024-02-26T04:29:06;237.47;;;51.90;;
355;SDS011;62514;48.112;11.566;2024-02-26T04:31:32;250.97;;;51.70;;
355;SDS011;62514;48.112;11.566;2024-02-26T04:33:58;260.50;;;53.87;;
355;SDS011;62514;48.112;11.566;2024-02-26T04:36:24;245.00;;;50.77;;
355;SDS011;62514;48.112;11.566;2024-02-26T04:38:51;280.67;;;57.77;;
355;SDS011;62514;48.112;11.566;2024-02-26T04:41:19;297.33;;;58.80;;
355;SDS011;62514;48.112;11.566;2024-02-26T04:43:45;292.53;;;59.80;;
355;SDS011;62514;48.112;11.566;2024-02-26T04:46:11;301.70;;;60.90;;
355;SDS011;62514;48.112;11.566;2024-02-26T04:48:37;303.57;;;60.37;;
355;SDS011;62514;48.112;11.566;2024-02-26T04:51:04;294.03;;;58.97;;
355;SDS011;62514;48.112;11.566;2024-02-26T04:53:30;261.40;;;54.20;;
355;SDS011;62514;48.112;11.566;2024-02-26T04:55:56;304.67;;;61.30;;
355;SDS011;62514;48.112;11.566;2024-02-26T04:58:22;292.67;;;59.27;;
355;SDS011;62514;48.112;11.566;2024-02-26T05:00:48;250.13;;;53.00;;
355;SDS011;62514;48.112;11.566;2024-02-26T05:03:14;235.33;;;58.40;;
355;SDS011;62514;48.112;11.566;2024-02-26T05:05:41;251.90;;;56.10;;
355;SDS011;62514;48.112;11.566;2024-02-26T05:08:08;227.57;;;53.10;;
355;SDS011;62514;48.112;11.566;2024-02-26T05:10:34;217.77;;;50.57;;
355;SDS011;62514;48.112;11.566;2024-02-26T05:13:04;222.57;;;51.43;;
355;SDS011;62514;48.112;11.566;2024-02-26T05:15:31;228.83;;;51.80;;
355;SDS011;62514;48.112;11.566;2024-02-26T05:17:57;245.07;;;54.87;;
355;SDS011;62514;48.112;11.566;2024-02-26T05:20:23;255.27;;;54.90;;
355;SDS011;62514;48.112;11.566;2024-02-26T05:22:49;264.97;;;56.97;;
355;SDS011;62514;48.112;11.566;2024-02-26T05:25:16;271.27;;;57.27;;
355;SDS011;62514;48.112;11.566;2024-02-26T05:27:42;304.40;;;63.83;;
355;SDS011;62514;48.112;11.566;2024-02-26T05:30:09;295.57;;;64.63;;
355;SDS011;62514;48.112;11.566;2024-02-26T05:32:36;302.13;;;62.70;;
355;SDS011;62514;48.112;11.566;2024-02-26T05:35:02;277.60;;;62.40;;
355;SDS011;62514;48.112;11.566;2024-02-26T05:37:29;236.43;;;49.63;;
355;SDS011;62514;48.112;11.566;2024-02-26T05:39:55;210.87;;;50.50;;
355;SDS011;62514;48.112;11.566;2024-02-26T05:42:21;210.93;;;50.17;;
355;SDS011;62514;48.112;11.566;2024-02-26T05:44:47;212.00;;;50.97;;
355;SDS011;62514;48.112;11.566;2024-02-26T05:47:13;199.00;;;48.40;;
355;SDS011;62514;48.112;11.566;2024-02-26T05:49:39;193.87;;;47.67;;
355;SDS011;62514;48.112;11.566;2024-02-26T05:52:05;204.53;;;50.93;;
355;SDS011;62514;48.112;11.566;2024-02-26T05:54:31;202.27;;;49.73;;
355;SDS011;62514;48.112;11.566;2024-02-26T05:56:57;191.00;;;46.07;;
355;SDS011;62514;48.112;11.566;2024-02-26T05:59:23;199.30;;;49.37;;
355;SDS011;62514;48.112;11.566;2024-02-26T06:01:49;192.93;;;46.97;;
355;SDS011;62514;48.112;11.566;2024-02-26T06:04:15;201.03;;;50.07;;
355;SDS011;62514;48.112;11.566;2024-02-26T06:06:44;200.17;;;49.33;;
355;SDS011;62514;48.112;11.566;2024-02-26T06:09:13;195.07;;;46.97;;
355;SDS011;62514;48.112;11.566;2024-02-26T06:11:39;193.43;;;47.83;;
355;SDS011;62514;48.112;11.566;2024-02-26T06:14:05;190.47;;;47.37;;
355;SDS011;62514;48.112;11.566;2024-02-26T06:16:31;192.83;;;46.40;;
355;SDS011;62514;48.112;11.566;2024-02-26T06:18:57;197.40;;;48.07;;
355;SDS011;62514;48.112;11.566;2024-02-26T06:21:25;197.20;;;50.67;;
355;SDS011;62514;48.112;11.566;2024-02-26T06:23:51;201.83;;;50.50;;
355;SDS011;62514;48.112;11.566;2024-02-26T06:26:17;197.60;;;48.60;;
355;SDS011;62514;48.112;11.566;2024-02-26T06:28:43;204.27;;;51.07;;
355;SDS011;62514;48.112;11.566;2024-02-26T06:31:10;194.87;;;48.27;;
355;SDS011;62514;48.112;11.566;2024-02-26T06:33:35;202.43;;;49.97;;
355;SDS011;62514;48.112;11.566;2024-02-26T06:36:01;200.40;;;50.40;;
355;SDS011;62514;48.112;11.566;2024-02-26T06:38:28;205.03;;;51.27;;
355;SDS011;62514;48.112;11.566;2024-02-26T06:40:54;207.37;;;52.50;;
355;SDS011;62514;48.112;11.566;2024-02-26T06:43:20;227.53;;;63.03;;
355;SDS011;62514;48.112;11.566;2024-02-26T06:45:46;201.20;;;48.77;;
355;SDS011;62514;48.112;11.566;2024-02-26T06:48:12;207.07;;;51.00;;
355;SDS011;62514;48.112;11.566;2024-02-26T06:50:37;209.90;;;51.60;;
355;SDS011;62514;48.112;11.566;2024-02-26T06:53:03;205.97;;;50.87;;
355;SDS011;62514;48.112;11.566;2024-02-26T06:55:30;204.03;;;51.23;;
355;SDS011;62514;48.112;11.566;2024-02-26T06:57:56;205.87;;;52.53;;
355;SDS011;62514;48.112;11.566;2024-02-26T07:00:22;207.93;;;50.93;;
355;SDS011;62514;48.112;11.566;2024-02-26T07:02:48;211.53;;;53.77;;
355;SDS011;62514;48.112;11.566;2024-02-26T07:05:14;210.93;;;52.07;;
355;SDS011;62514;48.112;11.566;2024-02-26T07:07:40;209.67;;;51.60;;
355;SDS011;62514;48.112;11.566;2024-02-26T07:10:06;212.17;;;51.70;;
355;SDS011;62514;48.112;11.566;2024-02-26T07:12:32;216.37;;;54.13;;
355;SDS011;62514;48.112;11.566;2024-02-26T07:14:58;214.73;;;53.00;;
355;SDS011;62514;48.112;11.566;2024-02-26T07:17:24;229.30;;;55.37;;
355;SDS011;62514;48.112;11.566;2024-02-26T07:19:50;214.90;;;52.43;;
355;SDS011;62514;48.112;11.566;2024-02-26T07:22:16;210.23;;;51.80;;
355;SDS011;62514;48.112;11.566;2024-02-26T07:24:42;215.23;;;54.30;;
355;SDS011;62514;48.112;11.566;2024-02-26T07:27:08;220.77;;;54.30;;
355;SDS011;62514;48.112;11.566;2024-02-26T07:29:34;225.83;;;56.37;;
355;SDS011;62514;48.112;11.566;2024-02-26T07:32:00;219.63;;;53.10;;
355;SDS011;62514;48.112;11.566;2024-02-26T07:34:26;229.53;;;55.70;;
355;SDS011;62514;48.112;11.566;2024-02-26T07:36:55;232.27;;;57.10;;
355;SDS011;62514;48.112;11.566;2024-02-26T07:39:21;212.20;;;51.57;;
355;SDS011;62514;48.112;11.566;2024-02-26T07:41:47;193.23;;;48.83;;
355;SDS011;62514;48.112;11.566;2024-02-26T07:44:17;213.00;;;55.27;;
355;SDS011;62514;48.112;11.566;2024-02-26T07:46:43;220.93;;;55.10;;
355;SDS011;62514;48.112;11.566;2024-02-26T07:49:09;215.07;;;53.10;;
355;SDS011;62514;48.112;11.566;2024-02-26T07:51:35;218.50;;;53.57;;
355;SDS011;62514;48.112;11.566;2024-02-26T07:54:00;221.00;;;53.10;;
355;SDS011;62514;48.112;11.566;2024-02-26T07:56:27;231.47;;;58.23;;
355;SDS011;62514;48.112;11.566;2024-02-26T07:58:53;228.57;;;57.93;;
355;SDS011;62514;48.112;11.566;2024-02-26T08:01:19;231.43;;;58.47;;
355;SDS011;62514;48.112;11.566;2024-02-26T08:03:44;249.10;;;66.03;;
355;SDS011;62514;48.112;11.566;2024-02-26T08:06:10;229.70;;;56.30;;
355;SDS011;62514;48.112;11.566;2024-02-26T08:08:36;230.97;;;56.87;;
355;SDS011;62514;48.112;11.566;2024-02-26T08:11:02;227.93;;;55.27;;
355;SDS011;62514;48.112;11.566;2024-02-26T08:13:28;233.90;;;57.57;;
355;SDS011;62514;48.112;11.566;2024-02-26T08:15:54;227.63;;;57.17;;
355;SDS011;62514;48.112;11.566;2024-02-26T08:18:20;227.57;;;55.33;;
355;SDS011;62514;48.112;11.566;2024-02-26T08:20:46;235.53;;;57.60;;
355;SDS011;62514;48.112;11.566;2024-02-26T08:23:14;268.83;;;71.70;;
355;SDS011;62514;48.112;11.566;2024-02-26T08:25:40;241.77;;;59.40;;
355;SDS011;62514;48.112;11.566;2024-02-26T08:28:06;248.87;;;61.43;;
355;SDS011;62514;48.112;11.566;2024-02-26T08:30:32;250.20;;;61.50;;
355;SDS011;62514;48.112;11.566;2024-02-26T08:32:59;257.97;;;62.57;;
355;SDS011;62514;48.112;11.566;2024-02-26T08:35:25;247.90;;;59.80;;
355;SDS011;62514;48.112;11.566;2024-02-26T08:37:51;262.13;;;62.67;;
355;SDS011;62514;48.112;11.566;2024-02-26T08:40:17;261.43;;;63.67;;
355;SDS011;62514;48.112;11.566;2024-02-26T08:42:44;268.47;;;65.73;;
355;SDS011;62514;48.112;11.566;2024-02-26T08:45:11;282.00;;;66.40;;
355;SDS011;62514;48.112;11.566;2024-02-26T08:47:39;288.67;;;69.13;;
355;SDS011;62514;48.112;11.566;2024-02-26T08:50:05;280.67;;;70.57;;
355;SDS011;62514;48.112;11.566;2024-02-26T08:52:31;300.80;;;73.53;;
355;SDS011;62514;48.112;11.566;2024-02-26T08:54:58;308.63;;;74.47;;
355;SDS011;62514;48.112;11.566;2024-02-26T08:57:24;301.10;;;71.90;;
355;SDS011;62514;48.112;11.566;2024-02-26T08:59:52;306.27;;;72.90;;
355;SDS011;62514;48.112;11.566;2024-02-26T09:02:18;303.10;;;72.17;;
355;SDS011;62514;48.112;11.566;2024-02-26T09:04:45;313.57;;;78.40;;
355;SDS011;62514;48.112;11.566;2024-02-26T09:07:11;302.80;;;71.97;;
355;SDS011;62514;48.112;11.566;2024-02-26T09:09:37;295.80;;;71.20;;
355;SDS011;62514;48.112;11.566;2024-02-26T09:12:03;294.60;;;71.97;;
355;SDS011;62514;48.112;11.566;2024-02-26T09:14:29;305.43;;;75.37;;
355;SDS011;62514;48.112;11.566;2024-02-26T09:16:55;300.13;;;73.97;;
355;SDS011;62514;48.112;11.566;2024-02-26T09:19:21;310.63;;;76.63;;
355;SDS011;62514;48.112;11.566;2024-02-26T09:21:47;302.90;;;71.60;;
355;SDS011;62514;48.112;11.566;2024-02-26T09:24:13;290.67;;;68.83;;
355;SDS011;62514;48.112;11.566;2024-02-26T09:26:38;312.30;;;78.43;;
355;SDS011;62514;48.112;11.566;2024-02-26T09:29:04;309.90;;;78.37;;
355;SDS011;62514;48.112;11.566;2024-02-26T09:31:31;306.40;;;77.80;;
355;SDS011;62514;48.112;11.566;2024-02-26T09:33:57;299.30;;;72.67;;
355;SDS011;62514;48.112;11.566;2024-02-26T09:36:23;317.47;;;80.17;;
355;SDS011;62514;48.112;11.566;2024-02-26T09:38:49;325.93;;;84.20;;
355;SDS011;62514;48.112;11.566;2024-02-26T09:41:15;321.07;;;82.90;;
355;SDS011;62514;48.112;11.566;2024-02-26T09:43:42;326.10;;;84.03;;
355;SDS011;62514;48.112;11.566;2024-02-26T09:46:13;315.50;;;82.67;;
355;SDS011;62514;48.112;11.566;2024-02-26T09:48:42;319.40;;;83.97;;
355;SDS011;62514;48.112;11.566;2024-02-26T09:51:08;329.80;;;89.77;;
355;SDS011;62514;48.112;11.566;2024-02-26T09:53:37;325.37;;;86.83;;
355;SDS011;62514;48.112;11.566;2024-02-26T09:56:08;324.23;;;87.50;;
355;SDS011;62514;48.112;11.566;2024-02-26T09:58:35;332.10;;;91.10;;
355;SDS011;62514;48.112;11.566;2024-02-26T10:01:02;342.67;;;95.30;;
355;SDS011;62514;48.112;11.566;2024-02-26T10:03:38;316.77;;;95.57;;
355;SDS011;62514;48.112;11.566;2024-02-26T10:06:06;342.60;;;97.97;;
355;SDS011;62514;48.112;11.566;2024-02-26T10:08:34;337.17;;;93.57;;
355;SDS011;62514;48.112;11.566;2024-02-26T10:11:02;336.53;;;94.43;;
355;SDS011;62514;48.112;11.566;2024-02-26T10:13:30;332.20;;;91.97;;
355;SDS011;62514;48.112;11.566;2024-02-26T10:15:56;337.80;;;94.67;;
355;SDS011;62514;48.112;11.566;2024-02-26T10:18:22;338.47;;;93.73;;
355;SDS011;62514;48.112;11.566;2024-02-26T10:20:59;344.53;;;96.07;;
355;SDS011;62514;48.112;11.566;2024-02-26T10:23:27;326.37;;;89.40;;
355;SDS011;62514;48.112;11.566;2024-02-26T10:25:53;323.73;;;85.07;;
355;SDS011;62514;48.112;11.566;2024-02-26T10:28:20;322.77;;;84.93;;
355;SDS011;62514;48.112;11.566;2024-02-26T10:30:46;322.60;;;86.77;;
355;SDS011;62514;48.112;11.566;2024-02-26T10:33:12;334.33;;;92.63;;
355;SDS011;62514;48.112;11.566;2024-02-26T10:35:47;326.53;;;85.37;;
355;SDS011;62514;48.112;11.566;2024-02-26T10:38:13;324.90;;;87.40;;
355;SDS011;62514;48.112;11.566;2024-02-26T10:40:42;320.93;;;84.40;;
355;SDS011;62514;48.112;11.566;2024-02-26T10:43:08;338.67;;;92.60;;
355;SDS011;62514;48.112;11.566;2024-02-26T10:45:34;346.37;;;101.33;;
355;SDS011;62514;48.112;11.566;2024-02-26T10:48:02;339.50;;;95.33;;
355;SDS011;62514;48.112;11.566;2024-02-26T10:50:28;347.30;;;97.20;;
355;SDS011;62514;48.112;11.566;2024-02-26T10:52:54;348.07;;;101.60;;
355;SDS011;62514;48.112;11.566;2024-02-26T10:55:21;355.63;;;105.60;;
355;SDS011;62514;48.112;11.566;2024-02-26T10:57:48;377.37;;;112.60;;
355;SDS011;62514;48.112;11.566;2024-02-26T11:00:17;351.80;;;103.33;;
355;SDS011;62514;48.112;11.566;2024-02-26T11:02:44;382.23;;;121.17;;
355;SDS011;62514;48.112;11.566;2024-02-26T11:05:11;389.30;;;125.10;;
355;SDS011;62514;48.112;11.566;2024-02-26T11:07:38;396.63;;;132.23;;
355;SDS011;62514;48.112;11.566;2024-02-26T11:10:06;411.40;;;140.60;;
355;SDS011;62514;48.112;11.566;2024-02-26T11:12:33;416.03;;;140.23;;
355;SDS011;62514;48.112;11.566;2024-02-26T11:15:03;436.53;;;163.20;;
355;SDS011;62514;48.112;11.566;2024-02-26T11:17:29;441.40;;;170.03;;
355;SDS011;62514;48.112;11.566;2024-02-26T11:19:57;435.97;;;157.40;;
355;SDS011;62514;48.112;11.566;2024-02-26T11:22:24;449.93;;;172.07;;
355;SDS011;62514;48.112;11.566;2024-02-26T11:24:54;432.57;;;162.50;;
355;SDS011;62514;48.112;11.566;2024-02-26T11:27:37;436.47;;;165.43;;
355;SDS011;62514;48.112;11.566;2024-02-26T11:30:16;441.43;;;172.00;;
355;SDS011;62514;48.112;11.566;2024-02-26T11:32:44;456.73;;;184.10;;
355;SDS011;62514;48.112;11.566;2024-02-26T11:35:14;472.73;;;197.90;;
355;SDS011;62514;48.112;11.566;2024-02-26T11:37:50;463.47;;;189.20;;
355;SDS011;62514;48.112;11.566;2024-02-26T11:40:18;465.37;;;194.23;;
355;SDS011;62514;48.112;11.566;2024-02-26T11:42:44;469.03;;;197.80;;
355;SDS011;62514;48.112;11.566;2024-02-26T11:48:15;453.53;;;185.13;;
355;SDS011;62514;48.112;11.566;2024-02-26T11:50:46;467.63;;;207.10;;
355;SDS011;62514;48.112;11.566;2024-02-26T11:55:48;495.57;;;222.13;;
355;SDS011;62514;48.112;11.566;2024-02-26T11:58:43;518.97;;;254.37;;
355;SDS011;62514;48.112;11.566;2024-02-26T12:04:04;550.03;;;299.77;;
355;SDS011;62514;48.112;11.566;2024-02-26T12:06:43;530.70;;;289.73;;
355;SDS011;62514;48.112;11.566;2024-02-26T12:12:12;549.30;;;332.10;;
355;SDS011;62514;48.112;11.566;2024-02-26T12:14:50;569.50;;;357.97;;
355;SDS011;62514;48.112;11.566;2024-02-26T12:17:22;568.77;;;352.57;;
355;SDS011;62514;48.112;11.566;2024-02-26T12:19:49;573.70;;;358.50;;
355;SDS011;62514;48.112;11.566;2024-02-26T12:22:17;561.80;;;332.60;;
355;SDS011;62514;48.112;11.566;2024-02-26T12:24:43;548.83;;;296.20;;
355;SDS011;62514;48.112;11.566;2024-02-26T12:27:09;543.97;;;277.70;;
355;SDS011;62514;48.112;11.566;2024-02-26T12:29:35;544.83;;;283.80;;
355;SDS011;62514;48.112;11.566;2024-02-26T12:32:01;530.03;;;269.67;;
355;SDS011;62514;48.112;11.566;2024-02-26T12:34:29;559.07;;;329.37;;
355;SDS011;62514;48.112;11.566;2024-02-26T12:36:56;567.03;;;349.70;;
355;SDS011;62514;48.112;11.566;2024-02-26T12:39:22;577.70;;;370.27;;
355;SDS011;62514;48.112;11.566;2024-02-26T12:41:48;576.00;;;373.87;;
355;SDS011;62514;48.112;11.566;2024-02-26T12:44:18;567.37;;;359.13;;
355;SDS011;62514;48.112;11.566;2024-02-26T12:46:49;565.73;;;337.97;;
355;SDS011;62514;48.112;11.566;2024-02-26T12:49:15;548.50;;;301.23;;
355;SDS011;62514;48.112;11.566;2024-02-26T12:51:43;522.80;;;249.37;;
355;SDS011;62514;48.112;11.566;2024-02-26T12:54:10;518.87;;;239.90;;
355;SDS011;62514;48.112;11.566;2024-02-26T12:56:38;531.57;;;251.67;;
355;SDS011;62514;48.112;11.566;2024-02-26T12:59:04;537.10;;;284.63;;
355;SDS011;62514;48.112;11.566;2024-02-26T13:01:30;540.70;;;300.87;;
355;SDS011;62514;48.112;11.566;2024-02-26T13:03:57;658.90;;;384.83;;
355;SDS011;62514;48.112;11.566;2024-02-26T13:06:25;573.17;;;364.10;;
355;SDS011;62514;48.112;11.566;2024-02-26T13:08:56;572.17;;;365.57;;
355;SDS011;62514;48.112;11.566;2024-02-26T13:11:26;563.83;;;351.30;;
355;SDS011;62514;48.112;11.566;2024-02-26T13:13:54;563.13;;;356.10;;
355;SDS011;62514;48.112;11.566;2024-02-26T13:16:23;561.13;;;352.53;;
355;SDS011;62514;48.112;11.566;2024-02-26T13:18:50;578.77;;;374.77;;
355;SDS011;62514;48.112;11.566;2024-02-26T13:21:16;592.47;;;373.97;;
355;SDS011;62514;48.112;11.566;2024-02-26T13:23:45;571.00;;;368.03;;
355;SDS011;62514;48.112;11.566;2024-02-26T13:26:14;562.60;;;346.93;;
355;SDS011;62514;48.112;11.566;2024-02-26T13:28:40;570.23;;;362.67;;
355;SDS011;62514;48.112;11.566;2024-02-26T13:31:06;567.43;;;352.60;;
355;SDS011;62514;48.112;11.566;2024-02-26T13:33:33;560.40;;;347.33;;
355;SDS011;62514;48.112;11.566;2024-02-26T13:36:00;555.97;;;340.67;;
355;SDS011;62514;48.112;11.566;2024-02-26T13:38:27;554.70;;;332.60;;
355;SDS011;62514;48.112;11.566;2024-02-26T13:40:56;546.83;;;314.00;;
355;SDS011;62514;48.112;11.566;2024-02-26T13:43:22;569.63;;;300.00;;
355;SDS011;62514;48.112;11.566;2024-02-26T13:45:48;538.63;;;269.37;;
355;SDS011;62514;48.112;11.566;2024-02-26T13:48:14;518.57;;;249.73;;
355;SDS011;62514;48.112;11.566;2024-02-26T13:50:41;520.13;;;258.03;;
355;SDS011;62514;48.112;11.566;2024-02-26T13:53:13;501.30;;;233.43;;
355;SDS011;62514;48.112;11.566;2024-02-26T13:55:40;528.47;;;257.93;;
355;SDS011;62514;48.112;11.566;2024-02-26T13:58:11;506.67;;;229.30;;
355;SDS011;62514;48.112;11.566;2024-02-26T14:00:38;497.67;;;212.80;;
355;SDS011;62514;48.112;11.566;2024-02-26T14:03:05;484.37;;;196.43;;
355;SDS011;62514;48.112;11.566;2024-02-26T14:05:31;481.90;;;194.47;;
355;SDS011;62514;48.112;11.566;2024-02-26T14:07:57;482.27;;;202.70;;
355;SDS011;62514;48.112;11.566;2024-02-26T14:10:23;484.50;;;189.33;;
355;SDS011;62514;48.112;11.566;2024-02-26T14:12:49;471.43;;;184.67;;
355;SDS011;62514;48.112;11.566;2024-02-26T14:15:15;462.57;;;166.20;;
355;SDS011;62514;48.112;11.566;2024-02-26T14:17:41;476.20;;;173.17;;
355;SDS011;62514;48.112;11.566;2024-02-26T14:20:08;465.73;;;163.13;;
355;SDS011;62514;48.112;11.566;2024-02-26T14:22:34;461.37;;;158.80;;
355;SDS011;62514;48.112;11.566;2024-02-26T14:25:00;475.10;;;167.07;;
355;SDS011;62514;48.112;11.566;2024-02-26T14:27:26;444.40;;;146.53;;